createdAt,value
2023-03-10T00:01:15.742Z,2.80
2023-03-10T00:04:05.474Z,2.80
2023-03-10T00:06:56.380Z,3.47
2023-03-10T00:09:46.016Z,3.47
2023-03-10T00:12:36.103Z,3.17
2023-03-10T00:15:25.710Z,3.27
2023-03-10T00:18:17.061Z,2.73
2023-03-10T00:21:06.864Z,2.60
2023-03-10T00:23:57.022Z,2.97
2023-03-10T00:26:47.605Z,3.37
2023-03-10T00:29:37.517Z,3.30
2023-03-10T00:32:27.162Z,3.63
2023-03-10T00:35:18.892Z,3.33
2023-03-10T00:38:08.352Z,2.80
2023-03-10T00:41:00.888Z,2.93
2023-03-10T00:43:51.049Z,3.47
2023-03-10T00:46:40.696Z,3.63
2023-03-10T00:49:30.592Z,4.03
2023-03-10T00:52:22.170Z,3.87
2023-03-10T00:55:11.987Z,3.30
2023-03-10T00:58:01.910Z,3.47
2023-03-10T01:00:51.357Z,3.70
2023-03-10T01:03:41.309Z,3.30
2023-03-10T01:06:30.871Z,2.93
2023-03-10T01:09:22.387Z,3.37
2023-03-10T01:12:12.236Z,3.43
2023-03-10T01:15:01.853Z,3.43
2023-03-10T01:17:51.469Z,3.27
2023-03-10T01:20:42.608Z,3.13
2023-03-10T01:23:32.647Z,3.80
2023-03-10T01:26:23.808Z,3.83
2023-03-10T01:29:13.369Z,3.07
2023-03-10T01:32:02.808Z,3.80
2023-03-10T01:34:52.846Z,3.27
2023-03-10T01:37:44.350Z,3.53
2023-03-10T01:40:34.611Z,3.00
2023-03-10T01:43:35.304Z,3.50
2023-03-10T01:46:50.048Z,3.50
2023-03-10T01:49:43.302Z,3.30
2023-03-10T01:52:34.852Z,3.20
2023-03-10T01:55:27.045Z,3.30
2023-03-10T01:58:19.235Z,3.13
2023-03-10T02:01:12.755Z,3.50
2023-03-10T02:04:07.263Z,3.20
2023-03-10T02:06:58.504Z,2.80
2023-03-10T02:09:51.111Z,2.90
2023-03-10T02:12:42.364Z,2.43
2023-03-10T02:15:20.364Z,2.70
2023-03-10T02:18:02.962Z,3.37
2023-03-10T02:20:47.695Z,2.93
2023-03-10T02:23:51.368Z,3.43
2023-03-10T02:26:56.600Z,2.80
2023-03-10T02:29:59.170Z,3.10
2023-03-10T02:32:53.997Z,2.70
2023-03-10T02:35:44.031Z,2.87
2023-03-10T02:38:33.486Z,2.57
2023-03-10T02:41:32.244Z,2.30
2023-03-10T02:44:24.705Z,2.60
2023-03-10T02:47:16.860Z,2.80
2023-03-10T02:50:08.874Z,2.40
2023-03-10T02:53:05.873Z,2.80
2023-03-10T02:55:56.289Z,2.57
2023-03-10T02:58:46.213Z,2.70
2023-03-10T03:01:36.124Z,1.73
2023-03-10T03:04:27.553Z,2.40
2023-03-10T03:07:17.424Z,2.47
2023-03-10T03:10:07.908Z,2.40
2023-03-10T03:12:58.023Z,2.70
2023-03-10T03:15:47.703Z,2.57
2023-03-10T03:18:38.806Z,2.50
2023-03-10T03:21:29.907Z,2.60
2023-03-10T03:24:21.504Z,2.77
2023-03-10T03:27:11.301Z,2.67
2023-03-10T03:30:01.239Z,3.17
2023-03-10T03:32:51.391Z,2.83
2023-03-10T03:35:42.103Z,2.77
2023-03-10T03:38:33.382Z,3.20
2023-03-10T03:41:23.156Z,2.00
2023-03-10T03:44:13.242Z,2.50
2023-03-10T03:47:02.623Z,2.53
2023-03-10T03:49:52.228Z,2.77
2023-03-10T03:52:42.162Z,2.60
2023-03-10T03:55:33.329Z,2.40
2023-03-10T03:58:22.987Z,2.87
2023-03-10T04:01:13.450Z,3.23
2023-03-10T04:04:03.134Z,3.00
2023-03-10T04:06:53.014Z,6.13
2023-03-10T04:09:43.676Z,7.57
2023-03-10T04:12:34.749Z,9.20
2023-03-10T04:15:25.104Z,8.10
2023-03-10T04:18:14.689Z,6.33
2023-03-10T04:21:04.367Z,9.10
2023-03-10T04:23:54.223Z,7.03
2023-03-10T04:26:43.704Z,3.80
2023-03-10T04:29:34.849Z,3.17
2023-03-10T04:32:24.908Z,1.43
2023-03-10T04:35:15.676Z,3.00
2023-03-10T04:38:05.265Z,3.07
2023-03-10T04:40:59.102Z,2.93
2023-03-10T04:43:48.653Z,2.90
2023-03-10T04:46:40.228Z,2.73
2023-03-10T04:49:30.300Z,3.37
2023-03-10T04:52:20.247Z,2.63
2023-03-10T04:55:10.907Z,2.80
2023-03-10T04:58:00.719Z,3.10
2023-03-10T05:01:02.377Z,2.83
2023-03-10T05:03:54.354Z,2.63
2023-03-10T05:06:44.846Z,2.53
2023-03-10T05:09:37.649Z,2.93
2023-03-10T05:12:27.885Z,2.73
2023-03-10T05:15:17.710Z,3.07
2023-03-10T05:18:07.381Z,2.33
2023-03-10T05:21:00.720Z,2.70
2023-03-10T05:23:50.597Z,3.27
2023-03-10T05:26:40.209Z,3.10
2023-03-10T05:29:29.685Z,2.37
2023-03-10T05:32:19.654Z,2.67
2023-03-10T05:35:10.161Z,3.20
2023-03-10T05:38:01.240Z,5.83
2023-03-10T05:40:50.602Z,4.33
2023-03-10T05:43:41.386Z,3.33
2023-03-10T05:46:31.375Z,4.97
2023-03-10T05:49:21.067Z,4.87
2023-03-10T05:52:10.635Z,11.70
2023-03-10T05:55:01.570Z,16.10
2023-03-10T05:57:51.439Z,7.60
2023-03-10T06:00:40.892Z,8.53
2023-03-10T06:03:30.498Z,2.07
2023-03-10T06:06:20.463Z,8.87
2023-03-10T06:09:10.333Z,10.50
2023-03-10T06:12:01.525Z,4.37
2023-03-10T06:14:50.963Z,4.80
2023-03-10T06:17:40.591Z,6.90
2023-03-10T06:20:30.384Z,3.97
2023-03-10T06:23:20.351Z,3.40
2023-03-10T06:26:13.216Z,9.43
2023-03-10T06:29:04.273Z,18.93
2023-03-10T06:31:54.442Z,15.07
2023-03-10T06:34:44.036Z,65.10
2023-03-10T06:37:33.583Z,76.40
2023-03-10T06:40:23.488Z,21.33
2023-03-10T06:43:13.828Z,163.53
2023-03-10T06:46:08.498Z,37.50
2023-03-10T06:48:58.608Z,23.30
2023-03-10T06:51:49.456Z,26.07
2023-03-10T06:54:39.178Z,124.60
2023-03-10T06:57:29.180Z,46.63
2023-03-10T07:00:20.024Z,8.77
2023-03-10T07:03:12.675Z,39.53
2023-03-10T07:06:02.789Z,11.83
2023-03-10T07:08:52.905Z,33.60
2023-03-10T07:11:42.689Z,15.83
2023-03-10T07:14:32.268Z,28.73
2023-03-10T07:17:22.081Z,19.93
2023-03-10T07:20:14.871Z,5.00
2023-03-10T07:23:04.673Z,14.43
2023-03-10T07:25:56.407Z,23.57
2023-03-10T07:28:46.458Z,177.70
2023-03-10T07:31:37.665Z,29.23
2023-03-10T07:34:27.409Z,30.00
2023-03-10T07:37:18.503Z,72.07
2023-03-10T07:40:10.160Z,10.20
2023-03-10T07:42:59.784Z,86.47
2023-03-10T07:45:49.753Z,63.03
2023-03-10T07:48:40.528Z,27.57
2023-03-10T07:51:30.334Z,8.93
2023-03-10T07:54:21.925Z,159.13
2023-03-10T07:57:12.689Z,78.87
2023-03-10T08:00:02.402Z,84.47
2023-03-10T08:02:52.102Z,79.23
2023-03-10T08:05:43.518Z,68.67
2023-03-10T08:08:33.485Z,63.80
2023-03-10T08:11:24.553Z,24.50
2023-03-10T08:14:14.704Z,12.57
2023-03-10T08:17:04.528Z,41.63
2023-03-10T08:19:54.351Z,34.60
2023-03-10T08:22:44.093Z,25.23
2023-03-10T08:25:34.024Z,37.47
2023-03-10T08:28:25.242Z,30.33
2023-03-10T08:31:17.190Z,12.87
2023-03-10T08:34:06.759Z,31.30
2023-03-10T08:36:57.464Z,16.47
2023-03-10T08:39:47.350Z,9.73
2023-03-10T08:42:37.629Z,12.17
2023-03-10T08:45:29.202Z,5.23
2023-03-10T08:48:18.844Z,15.70
2023-03-10T08:51:09.532Z,3.67
2023-03-10T08:53:59.527Z,4.50
2023-03-10T08:56:49.288Z,19.77
2023-03-10T08:59:38.872Z,19.50
2023-03-10T09:02:30.217Z,7.63
2023-03-10T09:05:21.740Z,40.17
2023-03-10T09:08:11.626Z,11.33
2023-03-10T09:11:02.306Z,20.37
2023-03-10T09:13:52.186Z,40.80
2023-03-10T09:16:42.016Z,7.53
2023-03-10T09:19:35.368Z,4.60
2023-03-10T09:22:33.135Z,4.47
2023-03-10T09:25:32.730Z,4.83
2023-03-10T09:28:28.857Z,5.67
2023-03-10T09:31:32.694Z,7.30
2023-03-10T09:34:32.177Z,4.70
2023-03-10T09:37:23.373Z,4.00
2023-03-10T09:40:18.105Z,15.93
2023-03-10T09:43:09.766Z,5.23
2023-03-10T09:46:05.530Z,8.07
2023-03-10T09:49:00.537Z,9.97
2023-03-10T09:51:52.398Z,6.77
2023-03-10T09:54:53.966Z,3.77
2023-03-10T09:57:44.226Z,4.53
2023-03-10T10:00:39.850Z,4.13
2023-03-10T10:03:50.115Z,3.30
2023-03-10T10:06:46.907Z,3.87
2023-03-10T10:09:43.624Z,2.80
2023-03-10T10:12:35.646Z,3.60
2023-03-10T10:15:27.509Z,3.23
2023-03-10T10:18:25.826Z,3.13
2023-03-10T10:21:22.371Z,2.97
2023-03-10T10:24:12.047Z,3.90
2023-03-10T10:27:02.430Z,3.40
2023-03-10T10:29:53.914Z,3.40
2023-03-10T10:32:58.313Z,3.67
2023-03-10T10:36:01.812Z,3.30
2023-03-10T10:38:53.476Z,3.20
2023-03-10T10:41:43.313Z,3.27
2023-03-10T10:44:47.395Z,3.53
2023-03-10T10:47:39.544Z,4.10
2023-03-10T10:50:31.431Z,2.77
2023-03-10T10:53:24.697Z,4.47
2023-03-10T10:56:17.710Z,4.43
2023-03-10T10:59:20.947Z,4.53
2023-03-10T11:02:24.763Z,4.30
2023-03-10T11:05:22.589Z,5.50
2023-03-10T11:08:31.028Z,5.17
2023-03-10T11:11:32.231Z,5.80
2023-03-10T11:14:49.996Z,5.27
2023-03-10T11:17:45.635Z,5.10
2023-03-10T11:20:50.850Z,5.33
2023-03-10T11:23:46.872Z,5.03
2023-03-10T11:26:52.549Z,4.93
2023-03-10T11:30:02.256Z,4.27
2023-03-10T11:33:05.428Z,4.50
2023-03-10T11:36:01.052Z,10.13
2023-03-10T11:38:55.151Z,5.23
2023-03-10T11:41:50.954Z,5.13
2023-03-10T11:44:44.216Z,3.70
2023-03-10T11:47:45.936Z,5.40
2023-03-10T11:50:44.022Z,4.33
2023-03-10T11:53:40.128Z,3.87
2023-03-10T11:56:31.034Z,4.00
2023-03-10T11:59:23.643Z,4.63
2023-03-10T12:02:18.156Z,5.07
2023-03-10T12:05:17.258Z,3.17
2023-03-10T12:08:08.111Z,3.87
2023-03-10T12:11:01.688Z,4.40
2023-03-10T12:13:54.427Z,4.00
2023-03-10T12:16:45.073Z,3.60
2023-03-10T12:19:34.787Z,4.40
2023-03-10T12:22:27.495Z,5.30
2023-03-10T12:25:45.087Z,6.40
2023-03-10T12:28:36.349Z,5.33
2023-03-10T12:31:47.946Z,6.70
2023-03-10T12:34:37.552Z,6.47
2023-03-10T12:37:27.645Z,6.40
2023-03-10T12:40:50.409Z,6.60
2023-03-10T12:43:58.149Z,4.73
2023-03-10T12:46:51.376Z,5.80
2023-03-10T12:49:49.290Z,6.80
2023-03-10T12:52:49.465Z,8.97
2023-03-10T12:55:43.284Z,5.73
2023-03-10T12:58:33.387Z,7.80
2023-03-10T13:01:27.916Z,7.33
2023-03-10T13:04:21.325Z,6.30
2023-03-10T13:07:17.584Z,5.63
2023-03-10T13:10:08.567Z,5.60
2023-03-10T13:13:02.708Z,6.37
2023-03-10T13:16:00.444Z,7.90
2023-03-10T13:18:53.036Z,7.73
2023-03-10T13:21:42.903Z,5.27
2023-03-10T13:24:34.759Z,5.43
2023-03-10T13:27:25.232Z,6.00
2023-03-10T13:30:18.037Z,7.23
2023-03-10T13:33:22.320Z,6.10
2023-03-10T13:36:25.795Z,5.27
2023-03-10T13:39:17.092Z,7.70
2023-03-10T13:42:21.405Z,6.07
2023-03-10T13:45:24.583Z,8.43
2023-03-10T13:48:16.237Z,13.37
2023-03-10T13:51:08.135Z,9.03
2023-03-10T13:54:12.978Z,6.03
2023-03-10T13:57:09.901Z,8.17
2023-03-10T14:00:00.477Z,8.20
2023-03-10T14:02:51.873Z,5.57
2023-03-10T14:05:46.725Z,5.60
2023-03-10T14:08:36.928Z,5.33
2023-03-10T14:11:35.385Z,4.60
2023-03-10T14:14:30.962Z,5.70
2023-03-10T14:17:35.633Z,4.67
2023-03-10T14:20:30.392Z,5.70
2023-03-10T14:23:28.772Z,5.60
2023-03-10T14:26:19.681Z,7.37
2023-03-10T14:29:17.873Z,6.00
2023-03-10T14:32:08.570Z,7.70
2023-03-10T14:34:58.352Z,7.73
2023-03-10T14:37:48.451Z,8.27
2023-03-10T14:40:42.569Z,6.53
2023-03-10T14:43:33.485Z,6.73
2023-03-10T14:46:27.590Z,6.17
2023-03-10T14:49:18.287Z,7.20
2023-03-10T14:52:15.703Z,6.67
2023-03-10T14:55:08.697Z,7.50
2023-03-10T14:58:02.768Z,7.57
2023-03-10T15:00:52.843Z,8.97
2023-03-10T15:03:44.405Z,9.17
2023-03-10T15:06:34.191Z,9.67
2023-03-10T15:09:23.993Z,12.13
2023-03-10T15:12:15.995Z,12.37
2023-03-10T15:15:06.405Z,13.10
2023-03-10T15:17:56.026Z,19.67
2023-03-10T15:20:47.441Z,19.53
2023-03-10T15:23:37.334Z,15.77
2023-03-10T15:26:28.689Z,12.03
2023-03-10T15:29:26.962Z,10.70
2023-03-10T15:32:20.189Z,20.13
2023-03-10T15:35:12.197Z,29.60
2023-03-10T15:38:05.441Z,48.53
2023-03-10T15:40:55.235Z,75.37
2023-03-10T15:43:47.559Z,69.40
2023-03-10T15:46:56.751Z,78.90
2023-03-10T15:50:06.006Z,44.47
2023-03-10T15:53:46.100Z,25.93
2023-03-10T15:56:43.098Z,26.53
2023-03-10T15:59:36.260Z,19.50
2023-03-10T16:02:26.649Z,35.60
2023-03-10T16:05:17.882Z,23.57
2023-03-10T16:08:08.591Z,50.83
2023-03-10T16:11:00.571Z,33.03
2023-03-10T16:13:51.508Z,34.90
2023-03-10T16:16:41.545Z,35.20
2023-03-10T16:19:36.252Z,27.17
2023-03-10T16:22:26.323Z,29.20
2023-03-10T16:25:17.883Z,38.47
2023-03-10T16:28:09.530Z,44.37
2023-03-10T16:30:59.569Z,48.30
2023-03-10T16:33:51.000Z,34.30
2023-03-10T16:36:41.885Z,25.73
2023-03-10T16:39:33.236Z,22.87
2023-03-10T16:42:23.142Z,29.17
2023-03-10T16:45:15.650Z,26.83
2023-03-10T16:48:08.270Z,31.93
2023-03-10T16:50:58.360Z,19.57
2023-03-10T16:53:48.640Z,21.70
2023-03-10T16:56:41.441Z,22.30
2023-03-10T16:59:32.405Z,20.77
2023-03-10T17:02:24.601Z,18.70
2023-03-10T17:05:15.517Z,15.33
2023-03-10T17:08:08.850Z,14.80
2023-03-10T17:10:58.683Z,15.37
2023-03-10T17:13:49.998Z,14.47
2023-03-10T17:16:41.321Z,19.67
2023-03-10T17:19:33.654Z,25.90
2023-03-10T17:22:24.053Z,28.73
2023-03-10T17:25:16.265Z,26.13
2023-03-10T17:28:09.365Z,28.53
2023-03-10T17:30:59.763Z,28.90
2023-03-10T17:33:53.546Z,25.33
2023-03-10T17:36:47.117Z,31.13
2023-03-10T17:39:37.912Z,32.73
2023-03-10T17:42:28.546Z,28.10
2023-03-10T17:45:22.974Z,26.77
2023-03-10T17:48:13.924Z,23.40
2023-03-10T17:51:04.626Z,21.77
2023-03-10T17:54:00.062Z,27.93
2023-03-10T17:56:50.847Z,25.43
2023-03-10T17:59:44.644Z,26.43
2023-03-10T18:02:37.667Z,23.37
2023-03-10T18:05:30.287Z,23.80
2023-03-10T18:08:20.215Z,19.83
2023-03-10T18:11:14.230Z,30.20
2023-03-10T18:14:04.951Z,31.50
2023-03-10T18:16:55.166Z,28.17
2023-03-10T18:19:45.636Z,32.97
2023-03-10T18:22:37.034Z,34.50
2023-03-10T18:25:27.945Z,28.90
2023-03-10T18:28:21.463Z,41.57
2023-03-10T18:31:14.533Z,52.50
2023-03-10T18:34:05.967Z,41.90
2023-03-10T18:36:57.575Z,32.80
2023-03-10T18:40:18.878Z,43.93
2023-03-10T18:43:10.210Z,77.33
2023-03-10T18:46:02.577Z,40.53
2023-03-10T18:48:56.953Z,32.20
2023-03-10T18:51:48.908Z,30.13
2023-03-10T18:54:41.945Z,25.90
2023-03-10T18:57:34.266Z,28.17
2023-03-10T19:00:28.589Z,31.63
2023-03-10T19:03:23.296Z,37.00
2023-03-10T19:06:14.984Z,34.10
2023-03-10T19:09:09.285Z,28.77
2023-03-10T19:12:00.759Z,35.37
2023-03-10T19:14:58.106Z,29.73
2023-03-10T19:17:49.861Z,29.80
2023-03-10T19:20:46.338Z,31.13
2023-03-10T19:23:42.004Z,33.43
2023-03-10T19:26:33.484Z,41.13
2023-03-10T19:29:27.418Z,35.13
2023-03-10T19:32:19.277Z,34.27
2023-03-10T19:35:12.620Z,35.70
2023-03-10T19:38:08.223Z,36.57
2023-03-10T19:41:00.717Z,38.53
2023-03-10T19:43:54.025Z,28.53
2023-03-10T19:46:45.371Z,35.20
2023-03-10T19:49:35.940Z,34.83
2023-03-10T19:52:27.478Z,36.77
2023-03-10T19:55:27.813Z,40.87
2023-03-10T19:58:19.254Z,37.63
2023-03-10T20:01:15.210Z,35.70
2023-03-10T20:04:07.025Z,36.60
2023-03-10T20:06:57.769Z,44.37
2023-03-10T20:09:51.897Z,44.43
2023-03-10T20:12:45.744Z,38.53
2023-03-10T20:15:37.018Z,43.17
2023-03-10T20:18:31.194Z,47.63
2023-03-10T20:21:23.286Z,41.57
2023-03-10T20:24:16.955Z,41.97
2023-03-10T20:27:13.030Z,50.50
2023-03-10T20:30:10.781Z,39.60
2023-03-10T20:33:04.367Z,42.17
2023-03-10T20:35:54.674Z,32.27
2023-03-10T20:38:49.220Z,32.23
2023-03-10T20:41:44.981Z,45.87
2023-03-10T20:44:38.579Z,42.63
2023-03-10T20:47:34.572Z,52.17
2023-03-10T20:50:27.300Z,41.70
2023-03-10T20:53:18.817Z,36.93
2023-03-10T20:56:12.372Z,41.13
2023-03-10T20:59:04.065Z,46.57
2023-03-10T21:01:55.642Z,32.70
2023-03-10T21:04:50.025Z,23.33
2023-03-10T21:07:43.909Z,31.73
2023-03-10T21:10:35.128Z,41.00
2023-03-10T21:13:26.163Z,35.33
2023-03-10T21:16:16.599Z,31.40
2023-03-10T21:19:07.739Z,45.73
2023-03-10T21:21:59.905Z,43.63
2023-03-10T21:24:51.273Z,34.27
2023-03-10T21:27:40.865Z,31.83
2023-03-10T21:30:35.472Z,32.13
2023-03-10T21:33:27.819Z,26.20
2023-03-10T21:36:26.350Z,26.23
2023-03-10T21:39:17.988Z,37.27
2023-03-10T21:42:08.493Z,30.73
2023-03-10T21:44:59.402Z,33.20
2023-03-10T21:47:50.389Z,30.53
2023-03-10T21:50:40.608Z,27.93
2023-03-10T21:53:31.080Z,26.53
2023-03-10T21:56:23.161Z,28.33
2023-03-10T21:59:12.909Z,29.13
2023-03-10T22:02:02.488Z,24.97
2023-03-10T22:04:51.951Z,26.43
2023-03-10T22:07:43.025Z,26.03
2023-03-10T22:10:33.262Z,26.80
2023-03-10T22:13:25.099Z,25.00
2023-03-10T22:16:18.494Z,27.10
2023-03-10T22:19:08.128Z,34.80
2023-03-10T22:21:57.733Z,27.87
2023-03-10T22:24:48.374Z,37.27
2023-03-10T22:27:38.343Z,37.67
2023-03-10T22:30:32.291Z,36.03
2023-03-10T22:33:22.610Z,43.97
2023-03-10T22:36:15.387Z,48.50
2023-03-10T22:39:05.590Z,41.23
2023-03-10T22:42:09.191Z,43.30
2023-03-10T22:44:59.678Z,25.33
2023-03-10T22:48:20.270Z,29.30
2023-03-10T22:51:44.225Z,62.87
2023-03-10T22:54:34.282Z,36.33
2023-03-10T22:57:24.285Z,36.23
2023-03-10T23:00:19.023Z,33.50
2023-03-10T23:03:12.365Z,36.03
2023-03-10T23:06:04.384Z,35.13
2023-03-10T23:08:54.069Z,31.83
2023-03-10T23:11:43.685Z,31.37
2023-03-10T23:14:33.217Z,37.33
2023-03-10T23:17:22.997Z,47.17
2023-03-10T23:20:15.446Z,54.53
2023-03-10T23:23:07.363Z,50.03
2023-03-10T23:25:56.906Z,51.03
2023-03-10T23:28:46.432Z,49.03
2023-03-10T23:31:35.997Z,58.83
2023-03-10T23:34:25.652Z,44.60
2023-03-10T23:37:16.645Z,41.00
2023-03-10T23:40:11.911Z,56.83
2023-03-10T23:43:03.147Z,51.13
2023-03-10T23:45:52.878Z,63.27
2023-03-10T23:48:42.563Z,78.43
2023-03-10T23:51:32.099Z,48.63
2023-03-10T23:54:25.029Z,49.60
2023-03-10T23:57:14.624Z,48.03
